createdAt,value
2023-03-17T00:03:29.393Z,5.43
2023-03-17T00:08:35.986Z,5.40
2023-03-17T00:13:38.631Z,4.53
2023-03-17T00:18:40.712Z,4.32
2023-03-17T00:23:48.579Z,5.68
2023-03-17T00:28:51.171Z,5.93
2023-03-17T00:33:54.176Z,4.78
2023-03-17T00:38:55.900Z,4.95
2023-03-17T00:43:59.725Z,4.35
2023-03-17T00:49:23.441Z,3.92
2023-03-17T00:54:25.786Z,5.32
2023-03-17T00:59:38.675Z,8.95
2023-03-17T01:04:41.860Z,4.32
2023-03-17T01:09:45.438Z,5.78
2023-03-17T01:14:48.205Z,5.63
2023-03-17T01:19:50.007Z,3.70
2023-03-17T01:24:51.669Z,3.30
2023-03-17T01:29:54.315Z,3.22
2023-03-17T01:34:55.958Z,4.95
2023-03-17T01:39:58.625Z,5.88
2023-03-17T01:45:03.910Z,3.72
2023-03-17T01:50:09.912Z,3.35
2023-03-17T01:55:17.809Z,5.30
2023-03-17T02:00:23.495Z,4.88
2023-03-17T02:05:31.051Z,4.10
2023-03-17T02:10:33.512Z,4.03
2023-03-17T02:15:43.044Z,3.78
2023-03-17T02:20:47.302Z,6.07
2023-03-17T02:25:52.554Z,5.15
2023-03-17T02:30:54.191Z,3.15
2023-03-17T02:35:57.117Z,6.95
2023-03-17T02:40:58.851Z,3.10
2023-03-17T02:46:01.309Z,4.55
2023-03-17T02:51:03.453Z,4.03
2023-03-17T02:56:05.585Z,5.00
2023-03-17T03:01:07.299Z,4.13
2023-03-17T03:06:09.130Z,5.53
2023-03-17T03:11:10.960Z,4.30
2023-03-17T03:16:12.814Z,3.70
2023-03-17T03:21:14.580Z,4.90
2023-03-17T03:26:16.489Z,3.33
2023-03-17T03:31:18.138Z,3.60
2023-03-17T03:36:21.703Z,3.63
2023-03-17T03:41:23.294Z,4.38
2023-03-17T03:46:26.688Z,4.32
2023-03-17T03:51:28.299Z,4.03
2023-03-17T03:56:29.888Z,3.17
2023-03-17T04:01:31.575Z,3.22
2023-03-17T04:06:33.208Z,6.13
2023-03-17T04:11:34.950Z,3.55
2023-03-17T04:16:36.532Z,4.18
2023-03-17T04:21:38.264Z,5.32
2023-03-17T04:26:39.871Z,3.97
2023-03-17T04:31:42.559Z,5.60
2023-03-17T04:36:46.116Z,3.95
2023-03-17T04:41:47.761Z,4.70
2023-03-17T04:46:49.442Z,3.50
2023-03-17T04:51:51.069Z,5.85
2023-03-17T04:56:53.089Z,3.40
2023-03-17T05:01:54.698Z,3.65
2023-03-17T05:06:58.216Z,3.85
2023-03-17T05:11:59.794Z,4.85
2023-03-17T05:17:01.529Z,3.67
2023-03-17T05:22:03.237Z,3.67
2023-03-17T05:27:04.959Z,4.57
2023-03-17T05:32:06.704Z,5.72
2023-03-17T05:37:08.713Z,4.63
2023-03-17T05:42:10.387Z,3.72
2023-03-17T05:47:12.106Z,3.92
2023-03-17T05:52:14.240Z,3.85
2023-03-17T05:57:16.377Z,6.78
2023-03-17T06:02:18.085Z,6.43
2023-03-17T06:07:20.619Z,3.35
2023-03-17T06:12:22.288Z,4.22
2023-03-17T06:17:23.970Z,4.07
2023-03-17T06:22:26.058Z,3.65
2023-03-17T06:27:27.686Z,3.28
2023-03-17T06:32:30.719Z,3.97
2023-03-17T06:37:32.361Z,4.72
2023-03-17T06:42:34.083Z,4.82
2023-03-17T06:47:37.240Z,3.65
2023-03-17T06:52:39.659Z,4.18
2023-03-17T06:57:41.833Z,4.40
2023-03-17T07:02:43.528Z,6.28
2023-03-17T07:07:46.076Z,9.63
2023-03-17T07:12:47.998Z,4.07
2023-03-17T07:17:49.643Z,6.28
2023-03-17T07:22:51.765Z,6.30
2023-03-17T07:27:53.506Z,22.55
2023-03-17T07:32:55.288Z,4.93
2023-03-17T07:37:57.381Z,4.05
2023-03-17T07:42:59.546Z,5.43
2023-03-17T07:48:01.355Z,3.97
2023-03-17T07:53:03.961Z,6.28
2023-03-17T07:58:06.342Z,6.28
2023-03-17T08:03:10.766Z,5.22
2023-03-17T08:08:12.829Z,3.90
2023-03-17T08:13:14.825Z,8.07
2023-03-17T08:18:16.482Z,4.45
2023-03-17T08:23:19.553Z,4.07
2023-03-17T08:28:21.149Z,5.32
2023-03-17T08:33:22.841Z,5.70
2023-03-17T08:38:24.454Z,6.13
2023-03-17T08:43:26.539Z,5.93
2023-03-17T08:48:28.548Z,4.82
2023-03-17T08:53:30.272Z,4.97
2023-03-17T08:58:31.982Z,4.50
2023-03-17T09:03:34.265Z,7.10
2023-03-17T09:08:38.996Z,6.97
2023-03-17T09:13:41.463Z,8.27
2023-03-17T09:18:43.670Z,5.95
2023-03-17T09:23:45.465Z,6.13
2023-03-17T09:28:47.451Z,8.32
2023-03-17T09:33:49.154Z,6.63
2023-03-17T09:38:51.265Z,7.57
2023-03-17T09:43:58.748Z,9.73
2023-03-17T09:49:09.377Z,9.40
2023-03-17T09:54:16.002Z,8.07
2023-03-17T09:59:33.916Z,6.45
2023-03-17T10:04:37.188Z,7.53
2023-03-17T10:09:51.403Z,10.40
2023-03-17T10:15:11.462Z,7.68
2023-03-17T10:20:17.339Z,8.35
2023-03-17T10:25:26.309Z,11.55
2023-03-17T10:30:31.603Z,31.00
2023-03-17T10:35:36.360Z,12.32
2023-03-17T10:40:38.158Z,8.35
2023-03-17T10:45:54.495Z,8.77
2023-03-17T10:50:58.780Z,8.23
2023-03-17T10:56:11.695Z,11.18
2023-03-17T11:01:27.895Z,9.93
2023-03-17T11:06:51.486Z,9.35
2023-03-17T11:12:02.991Z,8.68
2023-03-17T11:17:17.666Z,8.07
2023-03-17T11:22:29.191Z,10.13
2023-03-17T11:27:34.306Z,9.45
2023-03-17T11:32:46.684Z,9.93
2023-03-17T11:38:22.693Z,7.97
2023-03-17T11:43:30.324Z,9.13
2023-03-17T11:49:00.696Z,11.20
2023-03-17T11:54:09.737Z,8.07
2023-03-17T11:59:20.619Z,10.95
2023-03-17T12:04:53.156Z,9.60
2023-03-17T12:10:08.151Z,10.55
2023-03-17T12:15:22.330Z,9.75
2023-03-17T12:20:35.506Z,11.07
2023-03-17T12:25:50.452Z,10.55
2023-03-17T12:30:52.872Z,13.75
2023-03-17T12:35:54.551Z,14.48
2023-03-17T12:41:21.949Z,11.35
2023-03-17T12:46:53.157Z,9.80
2023-03-17T12:52:01.528Z,8.80
2023-03-17T12:57:14.649Z,11.15
2023-03-17T13:02:23.186Z,9.30
2023-03-17T13:07:41.419Z,12.35
2023-03-17T13:12:43.585Z,14.50
2023-03-17T13:17:45.441Z,16.92
2023-03-17T13:23:11.657Z,21.50
2023-03-17T13:28:13.339Z,12.65
2023-03-17T13:33:25.866Z,13.23
2023-03-17T13:39:18.967Z,10.90
2023-03-17T13:44:32.619Z,17.48
2023-03-17T13:49:36.683Z,12.32
2023-03-17T13:54:48.512Z,12.73
2023-03-17T14:00:16.181Z,16.85
2023-03-17T14:05:27.164Z,9.45
2023-03-17T14:10:31.794Z,9.30
2023-03-17T14:15:49.537Z,8.63
2023-03-17T14:20:57.472Z,12.90
2023-03-17T14:26:00.096Z,10.02
2023-03-17T14:31:04.818Z,11.60
2023-03-17T14:36:10.803Z,19.83
2023-03-17T14:41:13.839Z,8.60
2023-03-17T14:46:30.928Z,20.05
2023-03-17T14:51:38.059Z,9.98
2023-03-17T14:57:00.024Z,9.93
2023-03-17T15:02:15.950Z,12.93
2023-03-17T15:07:35.539Z,12.55
2023-03-17T15:12:37.677Z,10.60
2023-03-17T15:17:39.328Z,8.93
2023-03-17T15:23:03.031Z,9.25
2023-03-17T15:28:15.517Z,11.82
2023-03-17T15:33:38.957Z,8.57
2023-03-17T15:38:40.613Z,10.77
2023-03-17T15:43:42.333Z,9.20
2023-03-17T15:48:43.904Z,11.50
2023-03-17T15:53:47.433Z,14.98
2023-03-17T15:58:52.486Z,16.35
2023-03-17T16:03:54.324Z,16.92
2023-03-17T16:08:56.108Z,12.70
2023-03-17T16:13:59.695Z,13.07
2023-03-17T16:19:02.137Z,11.80
2023-03-17T16:24:06.171Z,12.18
2023-03-17T16:29:14.406Z,13.50
2023-03-17T16:34:17.187Z,9.38
2023-03-17T16:39:23.804Z,10.30
2023-03-17T16:44:25.934Z,10.80
2023-03-17T16:49:27.677Z,10.23
2023-03-17T16:54:33.194Z,12.25
2023-03-17T16:59:34.883Z,18.73
2023-03-17T17:04:38.494Z,12.13
2023-03-17T17:09:40.122Z,14.50
2023-03-17T17:14:41.729Z,12.02
2023-03-17T17:19:43.369Z,12.10
2023-03-17T17:24:45.137Z,10.85
2023-03-17T17:29:46.778Z,11.23
2023-03-17T17:34:48.406Z,11.63
2023-03-17T17:39:51.612Z,11.18
2023-03-17T17:44:53.294Z,11.23
2023-03-17T17:49:54.980Z,13.07
2023-03-17T17:54:57.301Z,11.52
2023-03-17T17:59:59.068Z,13.88
2023-03-17T18:05:01.208Z,15.73
2023-03-17T18:10:04.316Z,22.85
2023-03-17T18:15:07.124Z,21.15
2023-03-17T18:20:12.438Z,25.23
2023-03-17T18:25:15.486Z,29.30
2023-03-17T18:30:26.201Z,22.60
2023-03-17T18:35:28.993Z,25.23
2023-03-17T18:40:31.076Z,21.83
2023-03-17T18:45:32.768Z,22.92
2023-03-17T18:50:34.415Z,16.23
2023-03-17T18:55:36.243Z,20.30
2023-03-17T19:00:38.533Z,14.73
2023-03-17T19:05:40.986Z,13.43
2023-03-17T19:10:44.304Z,13.20
2023-03-17T19:15:47.118Z,15.23
2023-03-17T19:20:48.995Z,14.38
2023-03-17T19:25:51.220Z,17.35
2023-03-17T19:30:53.211Z,19.17
2023-03-17T19:35:58.559Z,17.08
2023-03-17T19:41:00.344Z,18.55
2023-03-17T19:46:02.144Z,17.83
2023-03-17T19:51:04.470Z,16.10
2023-03-17T19:56:06.871Z,19.88
2023-03-17T20:01:08.903Z,26.33
2023-03-17T20:06:12.288Z,25.83
2023-03-17T20:11:13.991Z,24.95
2023-03-17T20:16:17.335Z,16.25
2023-03-17T20:21:19.246Z,16.15
2023-03-17T20:26:21.207Z,17.33
2023-03-17T20:31:23.543Z,22.85
2023-03-17T20:36:25.993Z,22.85
2023-03-17T20:41:27.964Z,22.80
2023-03-17T20:46:29.723Z,17.02
2023-03-17T20:51:32.373Z,15.73
2023-03-17T20:56:34.171Z,22.27
2023-03-17T21:01:38.501Z,16.73
2023-03-17T21:06:41.471Z,14.52
2023-03-17T21:11:43.127Z,12.95
2023-03-17T21:16:47.172Z,16.83
2023-03-17T21:21:48.967Z,15.18
2023-03-17T21:26:50.707Z,16.10
2023-03-17T21:31:52.753Z,14.55
2023-03-17T21:36:54.788Z,14.40
2023-03-17T21:41:57.576Z,19.00
2023-03-17T21:47:02.576Z,17.73
2023-03-17T21:52:04.580Z,15.75
2023-03-17T21:57:06.311Z,17.67
2023-03-17T22:02:11.590Z,17.60
2023-03-17T22:07:13.828Z,18.85
2023-03-17T22:12:15.676Z,16.27
2023-03-17T22:17:17.489Z,13.15
2023-03-17T22:22:23.692Z,14.70
2023-03-17T22:27:25.383Z,15.32
2023-03-17T22:32:27.016Z,12.98
2023-03-17T22:37:28.753Z,13.52
2023-03-17T22:42:31.133Z,12.88
2023-03-17T22:47:32.750Z,14.27
2023-03-17T22:52:34.773Z,17.80
2023-03-17T22:57:37.100Z,13.65
2023-03-17T23:02:38.728Z,16.25
2023-03-17T23:07:50.437Z,15.80
2023-03-17T23:12:52.667Z,13.13
2023-03-17T23:17:54.247Z,15.32
2023-03-17T23:22:56.105Z,14.02
2023-03-17T23:27:57.682Z,16.00
2023-03-17T23:32:59.505Z,14.45
2023-03-17T23:38:02.799Z,14.35
2023-03-17T23:43:05.610Z,15.05
2023-03-17T23:48:10.009Z,15.88
2023-03-17T23:53:11.721Z,18.27
2023-03-17T23:58:13.957Z,17.00
